sensor_id;sensor_type;location;lat;lon;timestamp;P1;durP1;ratioP1;P2;durP2;ratioP2
71767;SDS011;59604;52.138;5.446;2023-03-23T11:01:53;7.95;;;1.40;;
71767;SDS011;59604;52.138;5.446;2023-03-23T11:04:21;9.68;;;1.60;;
71767;SDS011;59604;52.138;5.446;2023-03-23T11:06:49;5.97;;;1.60;;
71767;SDS011;59604;52.138;5.446;2023-03-23T11:09:21;7.68;;;1.40;;
71767;SDS011;59604;52.138;5.446;2023-03-23T11:11:59;10.38;;;1.50;;
71767;SDS011;59604;52.138;5.446;2023-03-23T11:14:26;5.60;;;1.30;;
71767;SDS011;59604;52.138;5.446;2023-03-23T11:17:00;6.32;;;1.40;;
71767;SDS011;59604;52.138;5.446;2023-03-23T11:19:31;6.15;;;1.48;;
71767;SDS011;59604;52.138;5.446;2023-03-23T11:24:40;5.75;;;1.25;;
71767;SDS011;59604;52.138;5.446;2023-03-23T11:27:08;5.82;;;1.40;;
71767;SDS011;59604;52.138;5.446;2023-03-23T11:29:36;5.65;;;1.10;;
71767;SDS011;59604;52.138;5.446;2023-03-23T12:07:14;7.28;;;1.77;;
71767;SDS011;59604;52.138;5.446;2023-03-23T12:15:12;10.82;;;1.95;;
71767;SDS011;59604;52.138;5.446;2023-03-23T12:36:13;13.98;;;1.92;;
71767;SDS011;59604;52.138;5.446;2023-03-23T12:39:08;9.23;;;1.90;;
71767;SDS011;59604;52.138;5.446;2023-03-23T12:44:31;6.05;;;1.65;;
71767;SDS011;59604;52.138;5.446;2023-03-23T12:47:09;7.78;;;1.90;;
71767;SDS011;59604;52.138;5.446;2023-03-23T12:49:54;6.78;;;1.58;;
71767;SDS011;59604;52.138;5.446;2023-03-23T12:52:35;7.43;;;1.60;;
71767;SDS011;59604;52.138;5.446;2023-03-23T12:58:07;6.65;;;1.75;;
71767;SDS011;59604;52.138;5.446;2023-03-23T13:03:33;8.23;;;1.50;;
71767;SDS011;59604;52.138;5.446;2023-03-23T13:11:38;5.60;;;1.40;;
71767;SDS011;59604;52.138;5.446;2023-03-23T13:16:50;5.78;;;1.50;;
71767;SDS011;59604;52.138;5.446;2023-03-23T13:25:44;7.68;;;1.58;;
71767;SDS011;59604;52.138;5.446;2023-03-23T13:28:16;5.07;;;1.52;;
71767;SDS011;59604;52.138;5.446;2023-03-23T13:30:53;5.55;;;1.50;;
71767;SDS011;59604;52.138;5.446;2023-03-23T13:33:23;6.57;;;1.42;;
71767;SDS011;59604;52.138;5.446;2023-03-23T13:35:49;6.63;;;1.75;;
71767;SDS011;59604;52.138;5.446;2023-03-23T13:38:26;6.38;;;1.70;;
71767;SDS011;59604;52.138;5.446;2023-03-23T13:40:53;6.43;;;1.40;;
71767;SDS011;59604;52.138;5.446;2023-03-23T13:43:29;6.30;;;1.50;;
71767;SDS011;59604;52.138;5.446;2023-03-23T13:46:06;5.00;;;1.35;;
71767;SDS011;59604;52.138;5.446;2023-03-23T13:48:40;8.80;;;1.55;;
71767;SDS011;59604;52.138;5.446;2023-03-23T13:56:57;5.70;;;1.38;;
71767;SDS011;59604;52.138;5.446;2023-03-23T13:59:47;5.70;;;1.38;;
71767;SDS011;59604;52.138;5.446;2023-03-23T14:02:28;8.15;;;1.40;;
71767;SDS011;59604;52.138;5.446;2023-03-23T14:04:56;6.68;;;1.33;;
71767;SDS011;59604;52.138;5.446;2023-03-23T14:07:22;5.82;;;1.60;;
71767;SDS011;59604;52.138;5.446;2023-03-23T14:09:49;5.07;;;1.20;;
71767;SDS011;59604;52.138;5.446;2023-03-23T14:12:23;7.68;;;1.30;;
71767;SDS011;59604;52.138;5.446;2023-03-23T14:14:56;5.68;;;1.30;;
71767;SDS011;59604;52.138;5.446;2023-03-23T14:17:30;7.35;;;1.45;;
71767;SDS011;59604;52.138;5.446;2023-03-23T14:19:58;7.35;;;1.33;;
71767;SDS011;59604;52.138;5.446;2023-03-23T14:22:35;5.15;;;1.23;;
71767;SDS011;59604;52.138;5.446;2023-03-23T14:25:13;6.78;;;1.30;;
71767;SDS011;59604;52.138;5.446;2023-03-23T14:27:41;6.35;;;1.30;;
71767;SDS011;59604;52.138;5.446;2023-03-23T14:30:08;6.55;;;1.50;;
71767;SDS011;59604;52.138;5.446;2023-03-23T14:32:38;5.47;;;1.20;;
71767;SDS011;59604;52.138;5.446;2023-03-23T14:35:05;6.63;;;1.50;;
71767;SDS011;59604;52.138;5.446;2023-03-23T14:37:34;4.05;;;1.10;;
71767;SDS011;59604;52.138;5.446;2023-03-23T14:40:00;4.68;;;1.30;;
71767;SDS011;59604;52.138;5.446;2023-03-23T14:42:29;5.78;;;1.30;;
71767;SDS011;59604;52.138;5.446;2023-03-23T14:44:56;5.82;;;1.25;;
71767;SDS011;59604;52.138;5.446;2023-03-23T14:47:29;5.35;;;1.20;;
71767;SDS011;59604;52.138;5.446;2023-03-23T14:49:57;5.82;;;1.23;;
71767;SDS011;59604;52.138;5.446;2023-03-23T14:54:51;3.70;;;1.20;;
71767;SDS011;59604;52.138;5.446;2023-03-23T14:57:17;4.18;;;1.23;;
71767;SDS011;59604;52.138;5.446;2023-03-23T14:59:51;4.75;;;1.20;;
71767;SDS011;59604;52.138;5.446;2023-03-23T15:02:20;4.18;;;1.25;;
71767;SDS011;59604;52.138;5.446;2023-03-23T15:04:47;4.22;;;1.00;;
71767;SDS011;59604;52.138;5.446;2023-03-23T15:07:16;4.80;;;1.10;;
71767;SDS011;59604;52.138;5.446;2023-03-23T15:09:43;7.03;;;1.52;;
71767;SDS011;59604;52.138;5.446;2023-03-23T15:14:53;8.48;;;1.20;;
71767;SDS011;59604;52.138;5.446;2023-03-23T15:17:30;7.47;;;1.30;;
71767;SDS011;59604;52.138;5.446;2023-03-23T15:20:06;4.90;;;1.20;;
71767;SDS011;59604;52.138;5.446;2023-03-23T15:22:34;7.60;;;1.27;;
71767;SDS011;59604;52.138;5.446;2023-03-23T15:27:39;9.32;;;1.27;;
71767;SDS011;59604;52.138;5.446;2023-03-23T15:32:47;6.63;;;1.30;;
71767;SDS011;59604;52.138;5.446;2023-03-23T15:35:16;7.32;;;1.40;;
71767;SDS011;59604;52.138;5.446;2023-03-23T15:37:57;7.47;;;1.25;;
71767;SDS011;59604;52.138;5.446;2023-03-23T15:40:25;10.68;;;1.60;;
71767;SDS011;59604;52.138;5.446;2023-03-23T15:43:35;5.75;;;1.20;;
71767;SDS011;59604;52.138;5.446;2023-03-23T15:46:04;7.07;;;1.30;;
71767;SDS011;59604;52.138;5.446;2023-03-23T15:48:51;7.45;;;1.50;;
71767;SDS011;59604;52.138;5.446;2023-03-23T15:51:23;7.30;;;1.63;;
71767;SDS011;59604;52.138;5.446;2023-03-23T15:53:51;7.90;;;1.70;;
71767;SDS011;59604;52.138;5.446;2023-03-23T15:56:17;7.35;;;1.70;;
71767;SDS011;59604;52.138;5.446;2023-03-23T15:58:43;9.27;;;1.50;;
71767;SDS011;59604;52.138;5.446;2023-03-23T16:01:12;7.65;;;1.80;;
71767;SDS011;59604;52.138;5.446;2023-03-23T16:03:45;11.27;;;1.90;;
71767;SDS011;59604;52.138;5.446;2023-03-23T16:06:15;7.00;;;1.92;;
71767;SDS011;59604;52.138;5.446;2023-03-23T16:08:50;8.27;;;1.80;;
71767;SDS011;59604;52.138;5.446;2023-03-23T16:11:21;6.55;;;1.88;;
71767;SDS011;59604;52.138;5.446;2023-03-23T16:13:49;7.25;;;2.10;;
71767;SDS011;59604;52.138;5.446;2023-03-23T16:16:16;6.75;;;1.98;;
71767;SDS011;59604;52.138;5.446;2023-03-23T16:18:47;8.13;;;2.65;;
71767;SDS011;59604;52.138;5.446;2023-03-23T16:21:14;7.95;;;2.70;;
71767;SDS011;59604;52.138;5.446;2023-03-23T16:23:41;9.23;;;2.90;;
71767;SDS011;59604;52.138;5.446;2023-03-23T16:26:09;14.15;;;3.03;;
71767;SDS011;59604;52.138;5.446;2023-03-23T16:28:36;8.25;;;2.63;;
71767;SDS011;59604;52.138;5.446;2023-03-23T16:31:03;6.78;;;2.13;;
71767;SDS011;59604;52.138;5.446;2023-03-23T16:33:30;6.25;;;1.92;;
71767;SDS011;59604;52.138;5.446;2023-03-23T16:35:56;6.65;;;1.98;;
71767;SDS011;59604;52.138;5.446;2023-03-23T16:38:23;7.15;;;2.50;;
71767;SDS011;59604;52.138;5.446;2023-03-23T16:40:50;9.60;;;3.13;;
71767;SDS011;59604;52.138;5.446;2023-03-23T16:43:16;8.88;;;2.70;;
71767;SDS011;59604;52.138;5.446;2023-03-23T16:45:44;8.68;;;2.20;;
71767;SDS011;59604;52.138;5.446;2023-03-23T16:48:12;8.02;;;2.10;;
71767;SDS011;59604;52.138;5.446;2023-03-23T16:50:41;8.40;;;2.22;;
71767;SDS011;59604;52.138;5.446;2023-03-23T16:53:09;7.47;;;1.83;;
71767;SDS011;59604;52.138;5.446;2023-03-23T16:55:35;9.73;;;2.20;;
71767;SDS011;59604;52.138;5.446;2023-03-23T16:58:03;13.10;;;2.35;;
71767;SDS011;59604;52.138;5.446;2023-03-23T17:00:42;8.18;;;1.90;;
71767;SDS011;59604;52.138;5.446;2023-03-23T17:03:10;7.78;;;2.10;;
71767;SDS011;59604;52.138;5.446;2023-03-23T17:05:38;8.63;;;1.90;;
71767;SDS011;59604;52.138;5.446;2023-03-23T17:08:05;8.52;;;1.77;;
71767;SDS011;59604;52.138;5.446;2023-03-23T17:10:32;7.55;;;2.05;;
71767;SDS011;59604;52.138;5.446;2023-03-23T17:12:58;7.75;;;2.53;;
71767;SDS011;59604;52.138;5.446;2023-03-23T17:15:25;9.15;;;1.85;;
71767;SDS011;59604;52.138;5.446;2023-03-23T17:17:52;11.55;;;2.03;;
71767;SDS011;59604;52.138;5.446;2023-03-23T17:20:20;7.07;;;2.30;;
71767;SDS011;59604;52.138;5.446;2023-03-23T17:22:46;7.80;;;1.77;;
71767;SDS011;59604;52.138;5.446;2023-03-23T17:25:13;6.57;;;1.70;;
71767;SDS011;59604;52.138;5.446;2023-03-23T17:27:40;8.95;;;1.63;;
71767;SDS011;59604;52.138;5.446;2023-03-23T17:30:07;7.00;;;1.55;;
71767;SDS011;59604;52.138;5.446;2023-03-23T17:32:37;5.47;;;1.50;;
71767;SDS011;59604;52.138;5.446;2023-03-23T17:35:04;7.57;;;1.92;;
71767;SDS011;59604;52.138;5.446;2023-03-23T17:37:32;7.97;;;1.45;;
71767;SDS011;59604;52.138;5.446;2023-03-23T17:39:58;5.85;;;1.38;;
71767;SDS011;59604;52.138;5.446;2023-03-23T17:42:25;7.18;;;1.67;;
71767;SDS011;59604;52.138;5.446;2023-03-23T17:44:52;6.78;;;1.60;;
71767;SDS011;59604;52.138;5.446;2023-03-23T17:47:19;6.80;;;1.63;;
71767;SDS011;59604;52.138;5.446;2023-03-23T17:49:45;6.15;;;1.63;;
71767;SDS011;59604;52.138;5.446;2023-03-23T17:52:12;7.72;;;1.60;;
71767;SDS011;59604;52.138;5.446;2023-03-23T17:54:39;6.68;;;1.40;;
71767;SDS011;59604;52.138;5.446;2023-03-23T17:57:05;6.40;;;1.33;;
71767;SDS011;59604;52.138;5.446;2023-03-23T17:59:32;6.82;;;1.92;;
71767;SDS011;59604;52.138;5.446;2023-03-23T18:01:59;8.50;;;1.90;;
71767;SDS011;59604;52.138;5.446;2023-03-23T18:04:25;6.03;;;1.98;;
71767;SDS011;59604;52.138;5.446;2023-03-23T18:06:55;9.15;;;2.65;;
71767;SDS011;59604;52.138;5.446;2023-03-23T18:09:23;8.27;;;2.92;;
71767;SDS011;59604;52.138;5.446;2023-03-23T18:11:51;8.25;;;2.47;;
71767;SDS011;59604;52.138;5.446;2023-03-23T18:14:18;9.30;;;2.78;;
71767;SDS011;59604;52.138;5.446;2023-03-23T18:16:45;8.82;;;2.60;;
71767;SDS011;59604;52.138;5.446;2023-03-23T18:19:12;8.55;;;2.60;;
71767;SDS011;59604;52.138;5.446;2023-03-23T18:21:39;7.82;;;2.53;;
71767;SDS011;59604;52.138;5.446;2023-03-23T18:24:05;9.00;;;2.35;;
71767;SDS011;59604;52.138;5.446;2023-03-23T18:26:33;7.03;;;2.55;;
71767;SDS011;59604;52.138;5.446;2023-03-23T18:29:00;7.97;;;2.22;;
71767;SDS011;59604;52.138;5.446;2023-03-23T18:31:26;8.00;;;2.30;;
71767;SDS011;59604;52.138;5.446;2023-03-23T18:33:54;6.40;;;2.13;;
71767;SDS011;59604;52.138;5.446;2023-03-23T18:36:22;8.13;;;2.25;;
71767;SDS011;59604;52.138;5.446;2023-03-23T18:38:52;7.90;;;2.28;;
71767;SDS011;59604;52.138;5.446;2023-03-23T18:41:21;5.63;;;1.85;;
71767;SDS011;59604;52.138;5.446;2023-03-23T18:43:48;6.75;;;2.08;;
71767;SDS011;59604;52.138;5.446;2023-03-23T18:46:14;7.57;;;2.33;;
71767;SDS011;59604;52.138;5.446;2023-03-23T18:48:41;6.00;;;2.03;;
71767;SDS011;59604;52.138;5.446;2023-03-23T18:51:08;6.43;;;2.20;;
71767;SDS011;59604;52.138;5.446;2023-03-23T18:53:34;8.07;;;2.00;;
71767;SDS011;59604;52.138;5.446;2023-03-23T18:56:05;4.57;;;1.65;;
71767;SDS011;59604;52.138;5.446;2023-03-23T18:58:37;7.22;;;2.10;;
71767;SDS011;59604;52.138;5.446;2023-03-23T19:01:04;6.60;;;2.50;;
71767;SDS011;59604;52.138;5.446;2023-03-23T19:03:33;5.75;;;2.13;;
71767;SDS011;59604;52.138;5.446;2023-03-23T19:06:01;6.65;;;2.10;;
71767;SDS011;59604;52.138;5.446;2023-03-23T19:08:29;6.90;;;1.92;;
71767;SDS011;59604;52.138;5.446;2023-03-23T19:10:58;7.05;;;1.88;;
71767;SDS011;59604;52.138;5.446;2023-03-23T19:13:27;6.68;;;1.83;;
71767;SDS011;59604;52.138;5.446;2023-03-23T19:15:55;6.00;;;1.73;;
71767;SDS011;59604;52.138;5.446;2023-03-23T19:18:22;6.10;;;1.80;;
71767;SDS011;59604;52.138;5.446;2023-03-23T19:20:48;5.20;;;1.80;;
71767;SDS011;59604;52.138;5.446;2023-03-23T19:23:22;4.82;;;1.70;;
71767;SDS011;59604;52.138;5.446;2023-03-23T19:25:48;4.75;;;1.70;;
71767;SDS011;59604;52.138;5.446;2023-03-23T19:28:17;5.13;;;2.08;;
71767;SDS011;59604;52.138;5.446;2023-03-23T19:30:52;4.80;;;1.75;;
71767;SDS011;59604;52.138;5.446;2023-03-23T19:33:21;6.72;;;1.90;;
71767;SDS011;59604;52.138;5.446;2023-03-23T19:35:49;6.53;;;2.00;;
71767;SDS011;59604;52.138;5.446;2023-03-23T19:38:31;4.75;;;1.60;;
71767;SDS011;59604;52.138;5.446;2023-03-23T19:40:58;4.38;;;1.75;;
71767;SDS011;59604;52.138;5.446;2023-03-23T19:43:29;6.20;;;1.80;;
71767;SDS011;59604;52.138;5.446;2023-03-23T19:45:56;5.43;;;1.70;;
71767;SDS011;59604;52.138;5.446;2023-03-23T19:48:23;5.35;;;1.80;;
71767;SDS011;59604;52.138;5.446;2023-03-23T19:50:50;4.90;;;1.70;;
71767;SDS011;59604;52.138;5.446;2023-03-23T19:53:18;5.07;;;1.60;;
71767;SDS011;59604;52.138;5.446;2023-03-23T19:55:45;5.10;;;1.73;;
71767;SDS011;59604;52.138;5.446;2023-03-23T19:58:13;5.32;;;1.60;;
71767;SDS011;59604;52.138;5.446;2023-03-23T20:00:39;6.35;;;1.85;;
71767;SDS011;59604;52.138;5.446;2023-03-23T20:03:06;4.72;;;1.60;;
71767;SDS011;59604;52.138;5.446;2023-03-23T20:05:34;4.80;;;1.58;;
71767;SDS011;59604;52.138;5.446;2023-03-23T20:08:01;5.40;;;1.80;;
71767;SDS011;59604;52.138;5.446;2023-03-23T20:10:30;5.07;;;1.70;;
71767;SDS011;59604;52.138;5.446;2023-03-23T20:13:00;5.90;;;1.88;;
71767;SDS011;59604;52.138;5.446;2023-03-23T20:15:31;5.95;;;1.80;;
71767;SDS011;59604;52.138;5.446;2023-03-23T20:17:58;6.88;;;1.60;;
71767;SDS011;59604;52.138;5.446;2023-03-23T20:20:26;6.57;;;1.70;;
71767;SDS011;59604;52.138;5.446;2023-03-23T20:22:53;5.53;;;1.85;;
71767;SDS011;59604;52.138;5.446;2023-03-23T20:25:23;6.55;;;1.90;;
71767;SDS011;59604;52.138;5.446;2023-03-23T20:27:49;6.57;;;1.90;;
71767;SDS011;59604;52.138;5.446;2023-03-23T20:30:16;5.35;;;1.80;;
71767;SDS011;59604;52.138;5.446;2023-03-23T20:32:44;5.95;;;1.90;;
71767;SDS011;59604;52.138;5.446;2023-03-23T20:35:11;5.15;;;1.80;;
71767;SDS011;59604;52.138;5.446;2023-03-23T20:37:39;5.93;;;1.70;;
71767;SDS011;59604;52.138;5.446;2023-03-23T20:40:07;5.40;;;1.73;;
71767;SDS011;59604;52.138;5.446;2023-03-23T20:42:36;5.45;;;1.90;;
71767;SDS011;59604;52.138;5.446;2023-03-23T20:45:04;6.40;;;2.10;;
71767;SDS011;59604;52.138;5.446;2023-03-23T20:47:33;6.10;;;1.80;;
71767;SDS011;59604;52.138;5.446;2023-03-23T20:50:00;7.68;;;2.45;;
71767;SDS011;59604;52.138;5.446;2023-03-23T20:52:27;4.95;;;1.75;;
71767;SDS011;59604;52.138;5.446;2023-03-23T20:54:54;5.63;;;2.15;;
71767;SDS011;59604;52.138;5.446;2023-03-23T20:57:21;4.63;;;1.80;;
71767;SDS011;59604;52.138;5.446;2023-03-23T20:59:49;7.35;;;2.22;;
71767;SDS011;59604;52.138;5.446;2023-03-23T21:02:17;5.47;;;1.80;;
71767;SDS011;59604;52.138;5.446;2023-03-23T21:04:44;5.28;;;1.88;;
71767;SDS011;59604;52.138;5.446;2023-03-23T21:07:11;6.05;;;2.05;;
71767;SDS011;59604;52.138;5.446;2023-03-23T21:09:39;5.97;;;2.20;;
71767;SDS011;59604;52.138;5.446;2023-03-23T21:12:06;5.55;;;1.80;;
71767;SDS011;59604;52.138;5.446;2023-03-23T21:14:35;5.97;;;1.80;;
71767;SDS011;59604;52.138;5.446;2023-03-23T21:17:03;6.22;;;1.88;;
71767;SDS011;59604;52.138;5.446;2023-03-23T21:19:31;5.82;;;1.77;;
71767;SDS011;59604;52.138;5.446;2023-03-23T21:21:58;5.13;;;1.70;;
71767;SDS011;59604;52.138;5.446;2023-03-23T21:24:27;6.15;;;1.77;;
71767;SDS011;59604;52.138;5.446;2023-03-23T21:26:56;6.25;;;2.00;;
71767;SDS011;59604;52.138;5.446;2023-03-23T21:29:25;5.80;;;1.80;;
71767;SDS011;59604;52.138;5.446;2023-03-23T21:31:53;4.97;;;2.00;;
71767;SDS011;59604;52.138;5.446;2023-03-23T21:34:33;6.43;;;1.83;;
71767;SDS011;59604;52.138;5.446;2023-03-23T21:37:00;6.20;;;1.67;;
71767;SDS011;59604;52.138;5.446;2023-03-23T21:39:27;6.13;;;1.95;;
71767;SDS011;59604;52.138;5.446;2023-03-23T21:41:53;4.72;;;1.60;;
71767;SDS011;59604;52.138;5.446;2023-03-23T21:44:20;5.38;;;1.83;;
71767;SDS011;59604;52.138;5.446;2023-03-23T21:46:46;6.35;;;1.80;;
71767;SDS011;59604;52.138;5.446;2023-03-23T21:49:13;5.03;;;1.70;;
71767;SDS011;59604;52.138;5.446;2023-03-23T21:51:40;5.50;;;2.03;;
71767;SDS011;59604;52.138;5.446;2023-03-23T21:56:35;4.57;;;1.70;;
71767;SDS011;59604;52.138;5.446;2023-03-23T21:59:02;4.80;;;1.60;;
71767;SDS011;59604;52.138;5.446;2023-03-23T22:01:29;5.55;;;1.70;;
71767;SDS011;59604;52.138;5.446;2023-03-23T22:03:56;3.78;;;1.40;;
71767;SDS011;59604;52.138;5.446;2023-03-23T22:06:24;5.75;;;2.08;;
71767;SDS011;59604;52.138;5.446;2023-03-23T22:08:56;4.60;;;1.67;;
71767;SDS011;59604;52.138;5.446;2023-03-23T22:11:25;5.38;;;1.70;;
71767;SDS011;59604;52.138;5.446;2023-03-23T22:13:54;5.88;;;1.70;;
71767;SDS011;59604;52.138;5.446;2023-03-23T22:16:22;5.70;;;1.60;;
71767;SDS011;59604;52.138;5.446;2023-03-23T22:18:49;5.63;;;1.70;;
71767;SDS011;59604;52.138;5.446;2023-03-23T22:21:18;6.07;;;1.50;;
71767;SDS011;59604;52.138;5.446;2023-03-23T22:23:47;7.40;;;1.70;;
71767;SDS011;59604;52.138;5.446;2023-03-23T22:26:14;7.28;;;1.92;;
71767;SDS011;59604;52.138;5.446;2023-03-23T22:28:42;4.68;;;1.60;;
71767;SDS011;59604;52.138;5.446;2023-03-23T22:31:13;5.45;;;1.63;;
71767;SDS011;59604;52.138;5.446;2023-03-23T22:33:45;5.60;;;1.70;;
71767;SDS011;59604;52.138;5.446;2023-03-23T22:36:13;5.18;;;1.40;;
71767;SDS011;59604;52.138;5.446;2023-03-23T22:38:41;4.70;;;1.60;;
71767;SDS011;59604;52.138;5.446;2023-03-23T22:41:13;5.65;;;1.50;;
71767;SDS011;59604;52.138;5.446;2023-03-23T22:43:45;5.63;;;1.60;;
71767;SDS011;59604;52.138;5.446;2023-03-23T22:46:12;4.90;;;1.50;;
71767;SDS011;59604;52.138;5.446;2023-03-23T22:48:39;5.60;;;1.58;;
71767;SDS011;59604;52.138;5.446;2023-03-23T22:51:07;5.22;;;1.60;;
71767;SDS011;59604;52.138;5.446;2023-03-23T22:53:34;4.78;;;1.45;;
71767;SDS011;59604;52.138;5.446;2023-03-23T22:56:01;5.72;;;1.40;;
71767;SDS011;59604;52.138;5.446;2023-03-23T22:58:28;4.28;;;1.38;;
71767;SDS011;59604;52.138;5.446;2023-03-23T23:01:02;3.90;;;1.40;;
71767;SDS011;59604;52.138;5.446;2023-03-23T23:03:33;6.20;;;1.48;;
71767;SDS011;59604;52.138;5.446;2023-03-23T23:06:00;4.85;;;1.60;;
71767;SDS011;59604;52.138;5.446;2023-03-23T23:08:28;4.75;;;1.30;;
71767;SDS011;59604;52.138;5.446;2023-03-23T23:10:56;4.70;;;1.50;;
71767;SDS011;59604;52.138;5.446;2023-03-23T23:13:24;4.53;;;1.30;;
71767;SDS011;59604;52.138;5.446;2023-03-23T23:15:52;5.47;;;1.60;;
71767;SDS011;59604;52.138;5.446;2023-03-23T23:18:20;5.43;;;1.40;;
71767;SDS011;59604;52.138;5.446;2023-03-23T23:20:47;5.20;;;1.83;;
71767;SDS011;59604;52.138;5.446;2023-03-23T23:23:15;4.60;;;1.40;;
71767;SDS011;59604;52.138;5.446;2023-03-23T23:25:42;4.63;;;1.33;;
71767;SDS011;59604;52.138;5.446;2023-03-23T23:28:08;5.80;;;1.40;;
71767;SDS011;59604;52.138;5.446;2023-03-23T23:30:35;6.03;;;1.30;;
71767;SDS011;59604;52.138;5.446;2023-03-23T23:33:02;4.45;;;1.20;;
71767;SDS011;59604;52.138;5.446;2023-03-23T23:35:31;3.95;;;1.30;;
71767;SDS011;59604;52.138;5.446;2023-03-23T23:37:58;3.80;;;1.20;;
71767;SDS011;59604;52.138;5.446;2023-03-23T23:40:24;4.72;;;1.20;;
71767;SDS011;59604;52.138;5.446;2023-03-23T23:42:51;3.72;;;1.23;;
71767;SDS011;59604;52.138;5.446;2023-03-23T23:45:18;5.40;;;1.50;;
71767;SDS011;59604;52.138;5.446;2023-03-23T23:47:45;4.50;;;1.30;;
71767;SDS011;59604;52.138;5.446;2023-03-23T23:50:12;5.18;;;1.40;;
71767;SDS011;59604;52.138;5.446;2023-03-23T23:52:39;4.65;;;1.25;;
71767;SDS011;59604;52.138;5.446;2023-03-23T23:57:34;3.70;;;1.13;;
